sensor_id;sensor_type;location;lat;lon;timestamp;temperature;humidity
74946;HTU21D;63509;45.250;38.102;2024-02-26T00:01:01;3.17;55.74
74946;HTU21D;63509;45.250;38.102;2024-02-26T00:03:27;3.14;55.78
74946;HTU21D;63509;45.250;38.102;2024-02-26T00:05:53;3.12;55.79
74946;HTU21D;63509;45.250;38.102;2024-02-26T00:08:20;3.09;55.81
74946;HTU21D;63509;45.250;38.102;2024-02-26T00:10:46;3.06;55.87
74946;HTU21D;63509;45.250;38.102;2024-02-26T00:13:12;3.02;55.91
74946;HTU21D;63509;45.250;38.102;2024-02-26T00:15:38;3.00;55.97
74946;HTU21D;63509;45.250;38.102;2024-02-26T00:18:04;2.99;55.97
74946;HTU21D;63509;45.250;38.102;2024-02-26T00:20:30;2.97;56.00
74946;HTU21D;63509;45.250;38.102;2024-02-26T00:22:56;2.94;56.02
74946;HTU21D;63509;45.250;38.102;2024-02-26T00:25:22;2.91;56.08
74946;HTU21D;63509;45.250;38.102;2024-02-26T00:27:48;2.91;56.11
74946;HTU21D;63509;45.250;38.102;2024-02-26T00:30:14;2.91;56.12
74946;HTU21D;63509;45.250;38.102;2024-02-26T00:32:40;2.89;56.14
74946;HTU21D;63509;45.250;38.102;2024-02-26T00:35:06;2.88;56.15
74946;HTU21D;63509;45.250;38.102;2024-02-26T00:37:32;2.87;56.18
74946;HTU21D;63509;45.250;38.102;2024-02-26T00:39:58;2.84;56.21
74946;HTU21D;63509;45.250;38.102;2024-02-26T00:42:24;2.84;56.26
74946;HTU21D;63509;45.250;38.102;2024-02-26T00:44:50;2.83;56.26
74946;HTU21D;63509;45.250;38.102;2024-02-26T00:47:16;2.83;56.29
74946;HTU21D;63509;45.250;38.102;2024-02-26T00:49:43;2.83;56.30
74946;HTU21D;63509;45.250;38.102;2024-02-26T00:52:09;2.82;56.28
74946;HTU21D;63509;45.250;38.102;2024-02-26T00:54:35;2.82;56.29
74946;HTU21D;63509;45.250;38.102;2024-02-26T00:57:01;2.80;56.30
74946;HTU21D;63509;45.250;38.102;2024-02-26T00:59:27;2.79;56.35
74946;HTU21D;63509;45.250;38.102;2024-02-26T01:01:53;2.76;56.36
74946;HTU21D;63509;45.250;38.102;2024-02-26T01:04:19;2.73;56.41
74946;HTU21D;63509;45.250;38.102;2024-02-26T01:06:45;2.71;56.44
74946;HTU21D;63509;45.250;38.102;2024-02-26T01:09:11;2.67;56.50
74946;HTU21D;63509;45.250;38.102;2024-02-26T01:11:38;2.66;56.53
74946;HTU21D;63509;45.250;38.102;2024-02-26T01:14:04;2.65;56.55
74946;HTU21D;63509;45.250;38.102;2024-02-26T01:16:30;2.62;56.56
74946;HTU21D;63509;45.250;38.102;2024-02-26T01:18:57;2.60;56.57
74946;HTU21D;63509;45.250;38.102;2024-02-26T01:21:23;2.59;56.60
74946;HTU21D;63509;45.250;38.102;2024-02-26T01:23:49;2.57;56.64
74946;HTU21D;63509;45.250;38.102;2024-02-26T01:26:15;2.55;56.68
74946;HTU21D;63509;45.250;38.102;2024-02-26T01:28:41;2.52;56.70
74946;HTU21D;63509;45.250;38.102;2024-02-26T01:31:09;2.50;56.73
74946;HTU21D;63509;45.250;38.102;2024-02-26T01:33:36;2.49;56.77
74946;HTU21D;63509;45.250;38.102;2024-02-26T01:36:02;2.47;56.80
74946;HTU21D;63509;45.250;38.102;2024-02-26T01:38:28;2.44;56.83
74946;HTU21D;63509;45.250;38.102;2024-02-26T01:40:54;2.46;56.85
74946;HTU21D;63509;45.250;38.102;2024-02-26T01:43:23;2.46;56.86
74946;HTU21D;63509;45.250;38.102;2024-02-26T01:45:49;2.44;56.86
74946;HTU21D;63509;45.250;38.102;2024-02-26T01:48:15;2.43;56.89
74946;HTU21D;63509;45.250;38.102;2024-02-26T01:50:41;2.39;56.87
74946;HTU21D;63509;45.250;38.102;2024-02-26T01:53:08;2.38;56.91
74946;HTU21D;63509;45.250;38.102;2024-02-26T01:55:35;2.36;56.96
74946;HTU21D;63509;45.250;38.102;2024-02-26T01:58:01;2.34;56.99
74946;HTU21D;63509;45.250;38.102;2024-02-26T02:00:27;2.31;57.03
74946;HTU21D;63509;45.250;38.102;2024-02-26T02:02:54;2.30;57.04
74946;HTU21D;63509;45.250;38.102;2024-02-26T02:05:21;2.29;57.10
74946;HTU21D;63509;45.250;38.102;2024-02-26T02:07:47;2.28;57.13
74946;HTU21D;63509;45.250;38.102;2024-02-26T02:10:15;2.29;57.13
74946;HTU21D;63509;45.250;38.102;2024-02-26T02:12:43;2.30;57.14
74946;HTU21D;63509;45.250;38.102;2024-02-26T02:15:09;2.29;57.13
74946;HTU21D;63509;45.250;38.102;2024-02-26T02:17:36;2.28;57.13
74946;HTU21D;63509;45.250;38.102;2024-02-26T02:20:02;2.24;57.17
74946;HTU21D;63509;45.250;38.102;2024-02-26T02:22:29;2.24;57.15
74946;HTU21D;63509;45.250;38.102;2024-02-26T02:24:57;2.22;57.18
74946;HTU21D;63509;45.250;38.102;2024-02-26T02:27:24;2.17;57.20
74946;HTU21D;63509;45.250;38.102;2024-02-26T02:29:51;2.16;57.22
74946;HTU21D;63509;45.250;38.102;2024-02-26T02:32:17;2.12;57.27
74946;HTU21D;63509;45.250;38.102;2024-02-26T02:34:44;2.11;57.32
74946;HTU21D;63509;45.250;38.102;2024-02-26T02:37:10;2.09;57.32
74946;HTU21D;63509;45.250;38.102;2024-02-26T02:39:36;2.08;57.36
74946;HTU21D;63509;45.250;38.102;2024-02-26T02:42:02;2.06;57.41
74946;HTU21D;63509;45.250;38.102;2024-02-26T02:44:28;2.05;57.43
74946;HTU21D;63509;45.250;38.102;2024-02-26T02:46:54;2.06;57.42
74946;HTU21D;63509;45.250;38.102;2024-02-26T02:49:20;2.03;57.43
74946;HTU21D;63509;45.250;38.102;2024-02-26T02:51:49;2.05;57.48
74946;HTU21D;63509;45.250;38.102;2024-02-26T02:54:15;2.05;57.48
74946;HTU21D;63509;45.250;38.102;2024-02-26T02:56:41;2.01;57.49
74946;HTU21D;63509;45.250;38.102;2024-02-26T02:59:07;2.00;57.49
74946;HTU21D;63509;45.250;38.102;2024-02-26T03:01:33;1.98;57.54
74946;HTU21D;63509;45.250;38.102;2024-02-26T03:03:59;1.96;57.57
74946;HTU21D;63509;45.250;38.102;2024-02-26T03:06:25;1.94;57.60
74946;HTU21D;63509;45.250;38.102;2024-02-26T03:08:54;1.93;57.61
74946;HTU21D;63509;45.250;38.102;2024-02-26T03:11:20;1.92;57.63
74946;HTU21D;63509;45.250;38.102;2024-02-26T03:13:46;1.90;57.65
74946;HTU21D;63509;45.250;38.102;2024-02-26T03:16:12;1.87;57.67
74946;HTU21D;63509;45.250;38.102;2024-02-26T03:18:39;1.86;57.67
74946;HTU21D;63509;45.250;38.102;2024-02-26T03:21:06;1.85;57.72
74946;HTU21D;63509;45.250;38.102;2024-02-26T03:23:33;1.83;57.74
74946;HTU21D;63509;45.250;38.102;2024-02-26T03:26:05;1.80;57.77
74946;HTU21D;63509;45.250;38.102;2024-02-26T03:28:31;1.78;57.77
74946;HTU21D;63509;45.250;38.102;2024-02-26T03:31:01;1.76;57.80
74946;HTU21D;63509;45.250;38.102;2024-02-26T03:33:28;1.73;57.81
74946;HTU21D;63509;45.250;38.102;2024-02-26T03:35:53;1.71;57.89
74946;HTU21D;63509;45.250;38.102;2024-02-26T03:38:20;1.71;57.90
74946;HTU21D;63509;45.250;38.102;2024-02-26T03:40:46;1.70;57.91
74946;HTU21D;63509;45.250;38.102;2024-02-26T03:43:12;1.69;57.92
74946;HTU21D;63509;45.250;38.102;2024-02-26T03:45:38;1.71;57.93
74946;HTU21D;63509;45.250;38.102;2024-02-26T03:48:04;1.69;57.92
74946;HTU21D;63509;45.250;38.102;2024-02-26T03:50:31;1.68;57.99
74946;HTU21D;63509;45.250;38.102;2024-02-26T03:52:57;1.68;57.99
74946;HTU21D;63509;45.250;38.102;2024-02-26T03:55:23;1.67;58.03
74946;HTU21D;63509;45.250;38.102;2024-02-26T03:57:51;1.67;58.03
74946;HTU21D;63509;45.250;38.102;2024-02-26T04:00:18;1.65;58.04
74946;HTU21D;63509;45.250;38.102;2024-02-26T04:02:44;1.64;58.07
74946;HTU21D;63509;45.250;38.102;2024-02-26T04:05:11;1.65;58.10
74946;HTU21D;63509;45.250;38.102;2024-02-26T04:07:37;1.64;58.10
74946;HTU21D;63509;45.250;38.102;2024-02-26T04:10:03;1.63;58.11
74946;HTU21D;63509;45.250;38.102;2024-02-26T04:12:34;1.65;58.14
74946;HTU21D;63509;45.250;38.102;2024-02-26T04:15:00;1.65;58.12
74946;HTU21D;63509;45.250;38.102;2024-02-26T04:17:26;1.63;58.15
74946;HTU21D;63509;45.250;38.102;2024-02-26T04:19:52;1.64;58.15
74946;HTU21D;63509;45.250;38.102;2024-02-26T04:22:18;1.64;58.19
74946;HTU21D;63509;45.250;38.102;2024-02-26T04:24:44;1.63;58.16
74946;HTU21D;63509;45.250;38.102;2024-02-26T04:27:10;1.63;58.21
74946;HTU21D;63509;45.250;38.102;2024-02-26T04:29:36;1.62;58.21
74946;HTU21D;63509;45.250;38.102;2024-02-26T04:32:03;1.60;58.26
74946;HTU21D;63509;45.250;38.102;2024-02-26T04:34:29;1.61;58.29
74946;HTU21D;63509;45.250;38.102;2024-02-26T04:36:55;1.58;58.31
74946;HTU21D;63509;45.250;38.102;2024-02-26T04:39:21;1.60;58.35
74946;HTU21D;63509;45.250;38.102;2024-02-26T04:41:47;1.58;58.37
74946;HTU21D;63509;45.250;38.102;2024-02-26T04:44:13;1.58;58.40
74946;HTU21D;63509;45.250;38.102;2024-02-26T04:46:39;1.61;58.45
74946;HTU21D;63509;45.250;38.102;2024-02-26T04:49:05;1.64;58.45
74946;HTU21D;63509;45.250;38.102;2024-02-26T04:51:31;1.66;58.48
74946;HTU21D;63509;45.250;38.102;2024-02-26T04:53:57;1.69;58.49
74946;HTU21D;63509;45.250;38.102;2024-02-26T04:56:24;1.73;58.48
74946;HTU21D;63509;45.250;38.102;2024-02-26T04:58:51;1.76;58.48
74946;HTU21D;63509;45.250;38.102;2024-02-26T05:01:17;1.79;58.53
74946;HTU21D;63509;45.250;38.102;2024-02-26T05:03:44;1.84;58.51
74946;HTU21D;63509;45.250;38.102;2024-02-26T05:06:10;1.90;58.52
74946;HTU21D;63509;45.250;38.102;2024-02-26T05:08:36;1.95;58.51
74946;HTU21D;63509;45.250;38.102;2024-02-26T05:11:04;1.99;58.48
74946;HTU21D;63509;45.250;38.102;2024-02-26T05:13:31;2.02;58.50
74946;HTU21D;63509;45.250;38.102;2024-02-26T05:15:57;2.07;58.52
74946;HTU21D;63509;45.250;38.102;2024-02-26T05:18:23;2.11;58.53
74946;HTU21D;63509;45.250;38.102;2024-02-26T05:20:50;2.15;58.58
74946;HTU21D;63509;45.250;38.102;2024-02-26T05:23:16;2.21;58.59
74946;HTU21D;63509;45.250;38.102;2024-02-26T05:25:42;2.27;58.58
74946;HTU21D;63509;45.250;38.102;2024-02-26T05:28:08;2.32;58.55
74946;HTU21D;63509;45.250;38.102;2024-02-26T05:30:35;2.39;58.64
74946;HTU21D;63509;45.250;38.102;2024-02-26T05:33:01;2.42;58.58
74946;HTU21D;63509;45.250;38.102;2024-02-26T05:35:27;2.46;58.59
74946;HTU21D;63509;45.250;38.102;2024-02-26T05:37:53;2.49;58.61
74946;HTU21D;63509;45.250;38.102;2024-02-26T05:40:19;2.52;58.65
74946;HTU21D;63509;45.250;38.102;2024-02-26T05:42:45;2.58;58.66
74946;HTU21D;63509;45.250;38.102;2024-02-26T05:45:12;2.62;58.68
74946;HTU21D;63509;45.250;38.102;2024-02-26T05:47:38;2.68;58.71
74946;HTU21D;63509;45.250;38.102;2024-02-26T05:50:11;2.75;58.74
74946;HTU21D;63509;45.250;38.102;2024-02-26T05:52:40;2.84;58.72
74946;HTU21D;63509;45.250;38.102;2024-02-26T05:55:07;2.90;58.74
74946;HTU21D;63509;45.250;38.102;2024-02-26T05:57:34;2.95;58.75
74946;HTU21D;63509;45.250;38.102;2024-02-26T06:00:00;3.01;58.76
74946;HTU21D;63509;45.250;38.102;2024-02-26T06:02:37;3.10;58.77
74946;HTU21D;63509;45.250;38.102;2024-02-26T06:05:03;3.17;58.75
74946;HTU21D;63509;45.250;38.102;2024-02-26T06:07:29;3.23;58.74
74946;HTU21D;63509;45.250;38.102;2024-02-26T06:09:55;3.29;58.79
74946;HTU21D;63509;45.250;38.102;2024-02-26T06:12:21;3.40;58.80
74946;HTU21D;63509;45.250;38.102;2024-02-26T06:14:48;3.49;58.80
74946;HTU21D;63509;45.250;38.102;2024-02-26T06:17:13;3.58;58.74
74946;HTU21D;63509;45.250;38.102;2024-02-26T06:19:39;3.64;58.65
74946;HTU21D;63509;45.250;38.102;2024-02-26T06:22:05;3.72;58.67
74946;HTU21D;63509;45.250;38.102;2024-02-26T06:24:32;3.78;58.67
74946;HTU21D;63509;45.250;38.102;2024-02-26T06:26:58;3.85;58.63
74946;HTU21D;63509;45.250;38.102;2024-02-26T06:29:28;3.93;58.65
74946;HTU21D;63509;45.250;38.102;2024-02-26T06:31:54;4.02;58.65
74946;HTU21D;63509;45.250;38.102;2024-02-26T06:34:20;4.12;58.58
74946;HTU21D;63509;45.250;38.102;2024-02-26T06:36:46;4.19;58.57
74946;HTU21D;63509;45.250;38.102;2024-02-26T06:39:13;4.29;58.54
74946;HTU21D;63509;45.250;38.102;2024-02-26T06:41:40;4.39;58.50
74946;HTU21D;63509;45.250;38.102;2024-02-26T06:44:07;4.49;58.46
74946;HTU21D;63509;45.250;38.102;2024-02-26T06:46:33;4.58;58.41
74946;HTU21D;63509;45.250;38.102;2024-02-26T06:48:59;4.61;58.25
74946;HTU21D;63509;45.250;38.102;2024-02-26T06:51:25;4.64;58.29
74946;HTU21D;63509;45.250;38.102;2024-02-26T06:53:51;4.75;58.35
74946;HTU21D;63509;45.250;38.102;2024-02-26T06:56:17;4.88;58.25
74946;HTU21D;63509;45.250;38.102;2024-02-26T06:58:43;4.96;58.29
74946;HTU21D;63509;45.250;38.102;2024-02-26T07:01:11;5.08;58.19
74946;HTU21D;63509;45.250;38.102;2024-02-26T07:03:40;5.21;58.11
74946;HTU21D;63509;45.250;38.102;2024-02-26T07:06:06;5.33;58.06
74946;HTU21D;63509;45.250;38.102;2024-02-26T07:08:32;5.45;57.98
74946;HTU21D;63509;45.250;38.102;2024-02-26T07:10:58;5.56;57.91
74946;HTU21D;63509;45.250;38.102;2024-02-26T07:13:24;5.68;57.90
74946;HTU21D;63509;45.250;38.102;2024-02-26T07:15:50;5.80;57.83
74946;HTU21D;63509;45.250;38.102;2024-02-26T07:18:16;5.92;57.75
74946;HTU21D;63509;45.250;38.102;2024-02-26T07:20:43;6.05;57.64
74946;HTU21D;63509;45.250;38.102;2024-02-26T07:23:09;6.17;57.60
74946;HTU21D;63509;45.250;38.102;2024-02-26T07:25:35;6.28;57.45
74946;HTU21D;63509;45.250;38.102;2024-02-26T07:28:01;6.39;57.36
74946;HTU21D;63509;45.250;38.102;2024-02-26T07:30:27;6.46;57.27
74946;HTU21D;63509;45.250;38.102;2024-02-26T07:32:53;6.56;57.21
74946;HTU21D;63509;45.250;38.102;2024-02-26T07:35:19;6.63;57.15
74946;HTU21D;63509;45.250;38.102;2024-02-26T07:37:48;6.72;57.13
74946;HTU21D;63509;45.250;38.102;2024-02-26T07:40:15;6.84;57.00
74946;HTU21D;63509;45.250;38.102;2024-02-26T07:42:41;6.93;56.88
74946;HTU21D;63509;45.250;38.102;2024-02-26T07:45:08;7.02;56.77
74946;HTU21D;63509;45.250;38.102;2024-02-26T07:47:34;7.09;56.74
74946;HTU21D;63509;45.250;38.102;2024-02-26T07:50:01;7.18;56.54
74946;HTU21D;63509;45.250;38.102;2024-02-26T07:52:27;7.20;56.39
74946;HTU21D;63509;45.250;38.102;2024-02-26T07:54:53;7.25;56.38
74946;HTU21D;63509;45.250;38.102;2024-02-26T07:57:19;7.32;56.39
74946;HTU21D;63509;45.250;38.102;2024-02-26T07:59:47;7.42;56.29
74946;HTU21D;63509;45.250;38.102;2024-02-26T08:02:16;7.45;56.18
74946;HTU21D;63509;45.250;38.102;2024-02-26T08:04:42;7.54;56.18
74946;HTU21D;63509;45.250;38.102;2024-02-26T08:07:08;7.61;56.00
74946;HTU21D;63509;45.250;38.102;2024-02-26T08:09:34;7.68;55.94
74946;HTU21D;63509;45.250;38.102;2024-02-26T08:12:00;7.75;55.86
74946;HTU21D;63509;45.250;38.102;2024-02-26T08:14:26;7.84;55.84
74946;HTU21D;63509;45.250;38.102;2024-02-26T08:16:52;7.90;55.75
74946;HTU21D;63509;45.250;38.102;2024-02-26T08:19:18;7.99;55.73
74946;HTU21D;63509;45.250;38.102;2024-02-26T08:21:44;8.06;55.61
74946;HTU21D;63509;45.250;38.102;2024-02-26T08:24:10;8.14;55.52
74946;HTU21D;63509;45.250;38.102;2024-02-26T08:26:37;8.17;55.46
74946;HTU21D;63509;45.250;38.102;2024-02-26T08:29:03;8.27;55.48
74946;HTU21D;63509;45.250;38.102;2024-02-26T08:31:29;8.34;55.39
74946;HTU21D;63509;45.250;38.102;2024-02-26T08:33:56;8.44;55.39
74946;HTU21D;63509;45.250;38.102;2024-02-26T08:36:22;8.53;55.30
74946;HTU21D;63509;45.250;38.102;2024-02-26T08:38:48;8.64;55.33
74946;HTU21D;63509;45.250;38.102;2024-02-26T08:41:14;8.78;55.28
74946;HTU21D;63509;45.250;38.102;2024-02-26T08:43:40;8.89;55.25
74946;HTU21D;63509;45.250;38.102;2024-02-26T08:46:10;9.04;55.18
74946;HTU21D;63509;45.250;38.102;2024-02-26T08:48:39;9.15;55.05
74946;HTU21D;63509;45.250;38.102;2024-02-26T08:51:09;9.24;54.87
74946;HTU21D;63509;45.250;38.102;2024-02-26T08:53:36;9.25;54.62
74946;HTU21D;63509;45.250;38.102;2024-02-26T08:56:02;9.23;54.57
74946;HTU21D;63509;45.250;38.102;2024-02-26T08:58:28;9.24;54.56
74946;HTU21D;63509;45.250;38.102;2024-02-26T09:00:55;9.31;54.64
74946;HTU21D;63509;45.250;38.102;2024-02-26T09:03:21;9.42;54.60
74946;HTU21D;63509;45.250;38.102;2024-02-26T09:05:47;9.52;54.36
74946;HTU21D;63509;45.250;38.102;2024-02-26T09:08:14;9.54;54.18
74946;HTU21D;63509;45.250;38.102;2024-02-26T09:10:40;9.54;53.85
74946;HTU21D;63509;45.250;38.102;2024-02-26T09:13:06;9.54;53.93
74946;HTU21D;63509;45.250;38.102;2024-02-26T09:15:33;9.60;53.90
74946;HTU21D;63509;45.250;38.102;2024-02-26T09:17:59;9.66;53.91
74946;HTU21D;63509;45.250;38.102;2024-02-26T09:20:25;9.72;53.80
74946;HTU21D;63509;45.250;38.102;2024-02-26T09:22:51;9.79;53.56
74946;HTU21D;63509;45.250;38.102;2024-02-26T09:25:18;9.81;53.48
74946;HTU21D;63509;45.250;38.102;2024-02-26T09:27:44;9.88;53.49
74946;HTU21D;63509;45.250;38.102;2024-02-26T09:30:11;9.97;53.39
74946;HTU21D;63509;45.250;38.102;2024-02-26T09:32:38;10.07;53.05
74946;HTU21D;63509;45.250;38.102;2024-02-26T09:35:07;10.16;53.04
74946;HTU21D;63509;45.250;38.102;2024-02-26T09:37:34;10.26;52.91
74946;HTU21D;63509;45.250;38.102;2024-02-26T09:40:03;10.31;52.66
74946;HTU21D;63509;45.250;38.102;2024-02-26T09:42:31;10.35;52.65
74946;HTU21D;63509;45.250;38.102;2024-02-26T09:45:00;10.45;52.60
74946;HTU21D;63509;45.250;38.102;2024-02-26T09:47:31;10.55;52.47
74946;HTU21D;63509;45.250;38.102;2024-02-26T09:49:59;10.60;52.17
74946;HTU21D;63509;45.250;38.102;2024-02-26T09:52:28;10.66;52.21
74946;HTU21D;63509;45.250;38.102;2024-02-26T09:54:56;10.74;52.07
74946;HTU21D;63509;45.250;38.102;2024-02-26T09:57:23;10.79;51.95
74946;HTU21D;63509;45.250;38.102;2024-02-26T09:59:51;10.78;51.85
74946;HTU21D;63509;45.250;38.102;2024-02-26T10:02:19;10.81;52.36
74946;HTU21D;63509;45.250;38.102;2024-02-26T10:04:47;10.82;52.14
74946;HTU21D;63509;45.250;38.102;2024-02-26T10:07:13;10.81;51.98
74946;HTU21D;63509;45.250;38.102;2024-02-26T10:09:40;10.82;51.85
74946;HTU21D;63509;45.250;38.102;2024-02-26T10:12:08;10.85;51.86
74946;HTU21D;63509;45.250;38.102;2024-02-26T10:14:35;10.92;51.79
74946;HTU21D;63509;45.250;38.102;2024-02-26T10:17:02;10.98;51.65
74946;HTU21D;63509;45.250;38.102;2024-02-26T10:19:29;11.01;51.30
74946;HTU21D;63509;45.250;38.102;2024-02-26T10:21:57;11.03;51.29
74946;HTU21D;63509;45.250;38.102;2024-02-26T10:24:27;11.11;51.28
74946;HTU21D;63509;45.250;38.102;2024-02-26T10:26:57;11.17;51.25
74946;HTU21D;63509;45.250;38.102;2024-02-26T10:29:24;11.24;51.13
74946;HTU21D;63509;45.250;38.102;2024-02-26T10:31:51;11.31;51.01
74946;HTU21D;63509;45.250;38.102;2024-02-26T10:34:18;11.37;50.84
74946;HTU21D;63509;45.250;38.102;2024-02-26T10:36:45;11.41;50.73
74946;HTU21D;63509;45.250;38.102;2024-02-26T10:39:14;11.45;50.53
74946;HTU21D;63509;45.250;38.102;2024-02-26T10:41:42;11.46;50.64
74946;HTU21D;63509;45.250;38.102;2024-02-26T10:44:11;11.52;50.59
74946;HTU21D;63509;45.250;38.102;2024-02-26T10:46:40;11.49;50.40
74946;HTU21D;63509;45.250;38.102;2024-02-26T10:49:13;11.45;50.43
74946;HTU21D;63509;45.250;38.102;2024-02-26T10:51:42;11.44;50.32
74946;HTU21D;63509;45.250;38.102;2024-02-26T10:54:12;11.42;50.33
74946;HTU21D;63509;45.250;38.102;2024-02-26T10:56:42;11.41;50.25
74946;HTU21D;63509;45.250;38.102;2024-02-26T10:59:12;11.42;50.13
74946;HTU21D;63509;45.250;38.102;2024-02-26T11:01:39;11.46;50.09
74946;HTU21D;63509;45.250;38.102;2024-02-26T11:04:08;11.47;49.89
74946;HTU21D;63509;45.250;38.102;2024-02-26T11:06:36;11.45;49.88
74946;HTU21D;63509;45.250;38.102;2024-02-26T11:09:02;11.45;49.80
74946;HTU21D;63509;45.250;38.102;2024-02-26T11:11:32;11.45;49.92
74946;HTU21D;63509;45.250;38.102;2024-02-26T11:14:01;11.45;49.70
74946;HTU21D;63509;45.250;38.102;2024-02-26T11:16:29;11.40;49.65
74946;HTU21D;63509;45.250;38.102;2024-02-26T11:18:57;11.40;49.69
74946;HTU21D;63509;45.250;38.102;2024-02-26T11:21:23;11.42;49.62
74946;HTU21D;63509;45.250;38.102;2024-02-26T11:23:56;11.44;49.51
74946;HTU21D;63509;45.250;38.102;2024-02-26T11:26:23;11.47;49.47
74946;HTU21D;63509;45.250;38.102;2024-02-26T11:28:51;11.48;49.29
74946;HTU21D;63509;45.250;38.102;2024-02-26T11:31:18;11.46;49.15
74946;HTU21D;63509;45.250;38.102;2024-02-26T11:33:52;11.45;49.13
74946;HTU21D;63509;45.250;38.102;2024-02-26T11:36:19;11.43;49.11
74946;HTU21D;63509;45.250;38.102;2024-02-26T11:38:46;11.42;49.01
74946;HTU21D;63509;45.250;38.102;2024-02-26T11:41:18;11.40;49.01
74946;HTU21D;63509;45.250;38.102;2024-02-26T11:43:50;11.33;48.99
74946;HTU21D;63509;45.250;38.102;2024-02-26T11:46:26;11.27;49.08
74946;HTU21D;63509;45.250;38.102;2024-02-26T11:48:55;11.24;49.01
74946;HTU21D;63509;45.250;38.102;2024-02-26T11:51:26;11.17;48.99
74946;HTU21D;63509;45.250;38.102;2024-02-26T11:53:53;11.10;49.07
74946;HTU21D;63509;45.250;38.102;2024-02-26T11:56:21;11.03;49.15
74946;HTU21D;63509;45.250;38.102;2024-02-26T11:59:10;11.02;49.17
74946;HTU21D;63509;45.250;38.102;2024-02-26T12:01:41;10.98;49.27
74946;HTU21D;63509;45.250;38.102;2024-02-26T12:04:12;10.99;49.26
74946;HTU21D;63509;45.250;38.102;2024-02-26T12:06:51;11.04;49.35
74946;HTU21D;63509;45.250;38.102;2024-02-26T12:12:13;11.09;49.21
74946;HTU21D;63509;45.250;38.102;2024-02-26T12:14:53;11.11;49.33
74946;HTU21D;63509;45.250;38.102;2024-02-26T12:17:21;11.14;49.23
74946;HTU21D;63509;45.250;38.102;2024-02-26T12:19:47;11.17;49.08
74946;HTU21D;63509;45.250;38.102;2024-02-26T12:22:14;11.20;48.99
74946;HTU21D;63509;45.250;38.102;2024-02-26T12:24:44;11.22;48.99
74946;HTU21D;63509;45.250;38.102;2024-02-26T12:27:10;11.24;48.90
74946;HTU21D;63509;45.250;38.102;2024-02-26T12:29:36;11.26;48.86
74946;HTU21D;63509;45.250;38.102;2024-02-26T12:32:04;11.27;48.83
74946;HTU21D;63509;45.250;38.102;2024-02-26T12:34:31;11.22;48.76
74946;HTU21D;63509;45.250;38.102;2024-02-26T12:36:58;11.18;48.71
74946;HTU21D;63509;45.250;38.102;2024-02-26T12:39:24;11.12;48.79
74946;HTU21D;63509;45.250;38.102;2024-02-26T12:41:50;11.10;48.83
74946;HTU21D;63509;45.250;38.102;2024-02-26T12:44:16;11.07;48.85
74946;HTU21D;63509;45.250;38.102;2024-02-26T12:46:43;11.07;48.88
74946;HTU21D;63509;45.250;38.102;2024-02-26T12:49:14;11.09;48.92
74946;HTU21D;63509;45.250;38.102;2024-02-26T12:51:40;11.11;48.66
74946;HTU21D;63509;45.250;38.102;2024-02-26T12:54:07;11.11;48.65
74946;HTU21D;63509;45.250;38.102;2024-02-26T12:56:34;11.11;48.62
74946;HTU21D;63509;45.250;38.102;2024-02-26T12:59:00;11.08;48.62
74946;HTU21D;63509;45.250;38.102;2024-02-26T13:01:28;11.09;48.61
74946;HTU21D;63509;45.250;38.102;2024-02-26T13:03:55;11.08;48.63
74946;HTU21D;63509;45.250;38.102;2024-02-26T13:06:21;11.09;48.64
74946;HTU21D;63509;45.250;38.102;2024-02-26T13:08:47;11.09;48.58
74946;HTU21D;63509;45.250;38.102;2024-02-26T13:11:14;11.09;48.54
74946;HTU21D;63509;45.250;38.102;2024-02-26T13:13:41;11.08;48.60
74946;HTU21D;63509;45.250;38.102;2024-02-26T13:16:14;11.10;48.62
74946;HTU21D;63509;45.250;38.102;2024-02-26T13:18:41;11.10;48.55
74946;HTU21D;63509;45.250;38.102;2024-02-26T13:21:11;11.09;48.58
74946;HTU21D;63509;45.250;38.102;2024-02-26T13:23:39;11.09;48.59
74946;HTU21D;63509;45.250;38.102;2024-02-26T13:26:06;11.08;48.61
74946;HTU21D;63509;45.250;38.102;2024-02-26T13:28:32;11.07;48.63
74946;HTU21D;63509;45.250;38.102;2024-02-26T13:30:58;11.07;48.60
74946;HTU21D;63509;45.250;38.102;2024-02-26T13:33:28;11.04;48.50
74946;HTU21D;63509;45.250;38.102;2024-02-26T13:35:56;11.01;48.56
74946;HTU21D;63509;45.250;38.102;2024-02-26T13:38:22;11.00;48.62
74946;HTU21D;63509;45.250;38.102;2024-02-26T13:40:50;11.00;48.56
74946;HTU21D;63509;45.250;38.102;2024-02-26T13:43:16;10.98;48.57
74946;HTU21D;63509;45.250;38.102;2024-02-26T13:45:43;10.97;48.56
74946;HTU21D;63509;45.250;38.102;2024-02-26T13:48:13;10.97;48.44
74946;HTU21D;63509;45.250;38.102;2024-02-26T13:50:42;10.94;48.45
74946;HTU21D;63509;45.250;38.102;2024-02-26T13:53:12;10.94;48.48
74946;HTU21D;63509;45.250;38.102;2024-02-26T13:55:57;10.92;48.65
74946;HTU21D;63509;45.250;38.102;2024-02-26T13:58:24;10.93;48.64
74946;HTU21D;63509;45.250;38.102;2024-02-26T14:00:53;10.90;48.58
74946;HTU21D;63509;45.250;38.102;2024-02-26T14:03:20;10.90;48.61
74946;HTU21D;63509;45.250;38.102;2024-02-26T14:06:04;10.90;48.70
74946;HTU21D;63509;45.250;38.102;2024-02-26T14:08:31;10.88;48.63
74946;HTU21D;63509;45.250;38.102;2024-02-26T14:11:34;10.85;48.67
74946;HTU21D;63509;45.250;38.102;2024-02-26T14:14:01;10.85;48.70
74946;HTU21D;63509;45.250;38.102;2024-02-26T14:16:27;10.83;48.70
74946;HTU21D;63509;45.250;38.102;2024-02-26T14:18:53;10.82;48.76
74946;HTU21D;63509;45.250;38.102;2024-02-26T14:21:19;10.80;48.77
74946;HTU21D;63509;45.250;38.102;2024-02-26T14:23:46;10.79;48.79
74946;HTU21D;63509;45.250;38.102;2024-02-26T14:26:12;10.77;48.79
74946;HTU21D;63509;45.250;38.102;2024-02-26T14:28:38;10.74;48.79
74946;HTU21D;63509;45.250;38.102;2024-02-26T14:31:06;10.74;48.86
74946;HTU21D;63509;45.250;38.102;2024-02-26T14:33:37;10.72;48.91
74946;HTU21D;63509;45.250;38.102;2024-02-26T14:36:06;10.70;48.94
74946;HTU21D;63509;45.250;38.102;2024-02-26T14:38:33;10.68;48.98
74946;HTU21D;63509;45.250;38.102;2024-02-26T14:40:59;10.65;49.00
74946;HTU21D;63509;45.250;38.102;2024-02-26T14:43:25;10.60;49.04
74946;HTU21D;63509;45.250;38.102;2024-02-26T14:45:51;10.58;49.08
74946;HTU21D;63509;45.250;38.102;2024-02-26T14:48:17;10.56;49.15
74946;HTU21D;63509;45.250;38.102;2024-02-26T14:50:44;10.53;49.27
74946;HTU21D;63509;45.250;38.102;2024-02-26T14:53:11;10.53;49.20
74946;HTU21D;63509;45.250;38.102;2024-02-26T14:55:37;10.51;49.22
74946;HTU21D;63509;45.250;38.102;2024-02-26T14:58:03;10.52;49.23
74946;HTU21D;63509;45.250;38.102;2024-02-26T15:00:29;10.51;49.24
74946;HTU21D;63509;45.250;38.102;2024-02-26T15:02:59;10.54;49.28
74946;HTU21D;63509;45.250;38.102;2024-02-26T15:05:25;10.54;49.24
74946;HTU21D;63509;45.250;38.102;2024-02-26T15:07:52;10.54;49.22
74946;HTU21D;63509;45.250;38.102;2024-02-26T15:10:37;10.54;49.25
74946;HTU21D;63509;45.250;38.102;2024-02-26T15:13:05;10.51;49.21